Time;durP1;ratioP1;P1;durP2;ratioP2;P2;SDS_P1;SDS_P2;PMS_P1;PMS_P2;Temp;Humidity;BMP_temperature;BMP_pressure;BME280_temperature;BME280_humidity;BME280_pressure;Samples;Min_cycle;Max_cycle;Signal;HPM_P1;HPM_P2
2023/06/18 00:01:15;;;;;;;;;;;20.20;71.90;;;;;;5048025;28;866;-68
2023/06/18 00:03:40;;;;;;;;;;;20.20;71.80;;;;;;5047226;28;804;-69
2023/06/18 00:06:06;;;;;;;;;;;20.20;71.80;;;;;;5042316;28;1354;-68
2023/06/18 00:08:31;;;;;;;;;;;20.20;71.80;;;;;;5048783;28;1593;-68
2023/06/18 00:10:57;;;;;;;;;;;20.20;71.80;;;;;;5045837;28;836;-68
2023/06/18 00:13:22;;;;;;;;;;;20.20;71.80;;;;;;5048396;28;919;-68
2023/06/18 00:15:47;;;;;;;;;;;20.20;71.80;;;;;;5047325;28;1910;-68
2023/06/18 00:18:13;;;;;;;;;;;20.20;71.80;;;;;;5047762;28;860;-68
2023/06/18 00:20:39;;;;;;;;;;;20.20;71.90;;;;;;5047055;28;886;-68
2023/06/18 00:23:05;;;;;;;;;;;20.20;71.90;;;;;;5048902;28;856;-68
2023/06/18 00:25:30;;;;;;;;;;;20.20;71.80;;;;;;5047610;28;1246;-68
2023/06/18 00:27:56;;;;;;;;;;;20.20;71.90;;;;;;5049171;28;1395;-69
2023/06/18 00:30:21;;;;;;;;;;;20.20;71.80;;;;;;5049901;28;875;-68
2023/06/18 00:32:48;;;;;;;;;;;20.20;71.80;;;;;;5048525;28;965;-69
2023/06/18 00:35:16;;;;;;;;;;;20.20;71.90;;;;;;5045510;28;1902;-68
2023/06/18 00:37:44;;;;;;;;;;;20.20;71.80;;;;;;5045267;28;911;-68
2023/06/18 00:40:11;;;;;;;;;;;20.20;71.80;;;;;;5039183;28;918;-68
2023/06/18 00:42:36;;;;;;;;;;;20.20;71.80;;;;;;5047822;28;928;-68
2023/06/18 00:45:03;;;;;;;;;;;20.20;71.80;;;;;;5046601;28;1202;-68
2023/06/18 00:47:28;;;;;;;;;;;20.20;71.90;;;;;;5048756;28;1010;-68
2023/06/18 00:49:55;;;;;;;;;;;20.20;71.80;;;;;;5045927;28;800;-68
2023/06/18 00:52:23;;;;;;;;;;;20.20;71.80;;;;;;5046837;28;1043;-69
2023/06/18 00:54:49;;;;;;;;;;;20.20;71.80;;;;;;5043286;28;1260;-68
2023/06/18 00:57:17;;;;;;;;;;;20.20;71.90;;;;;;5047486;28;1906;-68
2023/06/18 00:59:42;;;;;;;;;;;20.20;71.80;;;;;;5046360;28;879;-68
2023/06/18 01:02:08;;;;;;;;;;;20.20;71.80;;;;;;5045017;28;805;-69
2023/06/18 01:04:33;;;;;;;;;;;20.20;71.80;;;;;;5044779;28;1208;-68
2023/06/18 01:07:01;;;;;;;;;;;20.20;71.80;;;;;;5046128;28;797;-68
2023/06/18 01:09:26;;;;;;;;;;;20.20;71.90;;;;;;5048441;28;836;-69
2023/06/18 01:11:52;;;;;;;;;;;20.20;71.90;;;;;;5048109;28;876;-68
2023/06/18 01:14:28;;;;;;;;;;;20.20;71.80;;;;;;5047510;28;1244;-68
2023/06/18 01:16:54;;;;;;;;;;;20.20;71.90;;;;;;5041898;28;1956;-68
2023/06/18 01:19:31;;;;;;;;;;;20.20;71.90;;;;;;5050495;28;871;-68
2023/06/18 01:22:01;;;;;;;;;;;20.20;71.80;;;;;;5051010;28;1042;-69
2023/06/18 01:24:28;;;;;;;;;;;20.20;71.80;;;;;;5049691;28;1262;-69
2023/06/18 01:26:54;;;;;;;;;;;20.20;71.90;;;;;;5050654;28;780;-68
2023/06/18 01:29:20;;;;;;;;;;;20.20;71.90;;;;;;5040602;28;1429;-69
2023/06/18 01:31:45;;;;;;;;;;;20.20;71.80;;;;;;5050081;28;1007;-69
2023/06/18 01:34:12;;;;;;;;;;;20.20;71.90;;;;;;5050139;28;1353;-69
2023/06/18 01:37:09;;;;;;;;;;;20.20;71.90;;;;;;5050546;28;1934;-69
2023/06/18 01:39:38;;;;;;;;;;;20.20;71.90;;;;;;5037527;28;1372;-68
2023/06/18 01:42:14;;;;;;;;;;;20.20;71.90;;;;;;5052585;28;753;-69
2023/06/18 01:44:40;;;;;;;;;;;20.20;71.90;;;;;;5049999;28;1236;-69
2023/06/18 01:47:06;;;;;;;;;;;20.20;71.90;;;;;;5048826;28;1046;-69
2023/06/18 01:49:31;;;;;;;;;;;20.20;71.90;;;;;;5049727;28;1101;-68
2023/06/18 01:51:56;;;;;;;;;;;20.20;71.90;;;;;;5045936;28;853;-68
2023/06/18 01:54:23;;;;;;;;;;;20.20;71.90;;;;;;5049189;28;1283;-68
2023/06/18 01:56:49;;;;;;;;;;;20.20;71.90;;;;;;5045608;28;1895;-68
2023/06/18 01:59:14;;;;;;;;;;;20.20;71.90;;;;;;5048127;28;784;-69
2023/06/18 02:01:40;;;;;;;;;;;20.20;71.90;;;;;;5051396;28;1716;-69
2023/06/18 02:04:06;;;;;;;;;;;20.20;71.90;;;;;;5050846;28;1277;-69
2023/06/18 02:06:31;;;;;;;;;;;20.20;71.90;;;;;;5048846;28;899;-69
2023/06/18 02:08:57;;;;;;;;;;;20.20;71.90;;;;;;5049651;28;1361;-69
2023/06/18 02:11:22;;;;;;;;;;;20.20;71.90;;;;;;5050762;28;820;-69
2023/06/18 02:13:48;;;;;;;;;;;20.20;72.70;;;;;;5051049;28;848;-68
2023/06/18 02:16:13;;;;;;;;;;;20.20;71.90;;;;;;5051197;28;1951;-68
2023/06/18 02:18:40;;;;;;;;;;;20.20;71.90;;;;;;5050093;28;882;-68
2023/06/18 02:21:05;;;;;;;;;;;20.20;71.90;;;;;;5048966;28;828;-68
2023/06/18 02:23:31;;;;;;;;;;;20.20;71.90;;;;;;5047986;28;812;-68
2023/06/18 02:25:57;;;;;;;;;;;20.20;71.90;;;;;;5049762;28;1370;-68
2023/06/18 02:28:23;;;;;;;;;;;20.20;71.90;;;;;;5048870;28;1407;-68
2023/06/18 02:30:48;;;;;;;;;;;20.20;71.90;;;;;;5049125;28;854;-68
2023/06/18 02:33:17;;;;;;;;;;;20.20;71.90;;;;;;5050117;28;884;-68
2023/06/18 02:35:43;;;;;;;;;;;20.20;71.90;;;;;;5048133;28;1898;-69
2023/06/18 02:38:08;;;;;;;;;;;20.20;71.90;;;;;;5049668;28;823;-68
2023/06/18 02:40:34;;;;;;;;;;;20.20;71.90;;;;;;5050484;28;1174;-68
2023/06/18 02:43:01;;;;;;;;;;;20.20;71.90;;;;;;5050317;28;840;-68
2023/06/18 02:45:27;;;;;;;;;;;20.20;71.90;;;;;;5048061;28;1268;-69
2023/06/18 02:47:53;;;;;;;;;;;20.20;71.90;;;;;;5048639;28;1378;-69
2023/06/18 02:50:18;;;;;;;;;;;20.20;71.90;;;;;;5048021;28;836;-69
2023/06/18 02:52:45;;;;;;;;;;;20.20;71.90;;;;;;5050618;28;851;-69
2023/06/18 02:55:10;;;;;;;;;;;20.20;71.90;;;;;;5048984;28;1273;-69
2023/06/18 02:57:36;;;;;;;;;;;20.20;71.90;;;;;;5047729;28;1906;-69
2023/06/18 03:00:04;;;;;;;;;;;20.20;71.90;;;;;;5049757;28;990;-69
2023/06/18 03:02:30;;;;;;;;;;;20.20;71.90;;;;;;5045702;28;808;-69
2023/06/18 03:04:56;;;;;;;;;;;20.20;71.90;;;;;;5049410;28;1387;-68
2023/06/18 03:07:21;;;;;;;;;;;20.20;71.90;;;;;;5049172;28;785;-68
2023/06/18 03:09:47;;;;;;;;;;;20.20;71.90;;;;;;5050372;28;924;-69
2023/06/18 03:12:12;;;;;;;;;;;20.20;71.90;;;;;;5048972;28;1011;-68
2023/06/18 03:14:38;;;;;;;;;;;20.20;71.90;;;;;;5050585;28;2174;-68
2023/06/18 03:17:03;;;;;;;;;;;20.20;71.90;;;;;;5049739;28;1981;-69
2023/06/18 03:19:29;;;;;;;;;;;20.20;71.90;;;;;;5049798;28;837;-68
2023/06/18 03:21:54;;;;;;;;;;;20.20;71.90;;;;;;5046982;28;945;-68
2023/06/18 03:24:20;;;;;;;;;;;20.20;71.90;;;;;;5048373;28;1280;-68
2023/06/18 03:26:46;;;;;;;;;;;20.20;71.90;;;;;;5049715;28;824;-69
2023/06/18 03:29:11;;;;;;;;;;;20.20;71.90;;;;;;5043983;28;1601;-69
2023/06/18 03:31:39;;;;;;;;;;;20.20;71.90;;;;;;5051352;28;746;-69
2023/06/18 03:34:06;;;;;;;;;;;20.20;71.90;;;;;;5049812;28;1370;-68
2023/06/18 03:36:39;;;;;;;;;;;20.20;71.90;;;;;;5048954;28;1902;-69
2023/06/18 03:39:05;;;;;;;;;;;20.20;71.90;;;;;;5050077;28;856;-68
2023/06/18 03:41:31;;;;;;;;;;;20.20;71.90;;;;;;5048581;28;848;-69
2023/06/18 03:43:56;;;;;;;;;;;20.20;71.90;;;;;;5046745;28;1335;-69
2023/06/18 03:46:22;;;;;;;;;;;20.20;71.90;;;;;;5038483;28;1685;-69
2023/06/18 03:48:47;;;;;;;;;;;20.20;71.90;;;;;;5045479;28;1773;-69
2023/06/18 03:51:13;;;;;;;;;;;20.20;71.90;;;;;;5049092;28;1066;-69
2023/06/18 03:53:38;;;;;;;;;;;20.20;71.90;;;;;;5049844;28;796;-68
2023/06/18 03:56:04;;;;;;;;;;;20.20;71.90;;;;;;5046435;28;1910;-68
2023/06/18 03:58:30;;;;;;;;;;;20.20;71.90;;;;;;5046733;28;793;-68
2023/06/18 04:00:55;;;;;;;;;;;20.20;71.90;;;;;;5045531;28;867;-68
2023/06/18 04:03:22;;;;;;;;;;;20.20;71.90;;;;;;5047234;28;876;-69
2023/06/18 04:05:48;;;;;;;;;;;20.20;71.90;;;;;;5050171;28;1379;-69
2023/06/18 04:08:13;;;;;;;;;;;20.20;71.90;;;;;;5048753;28;1069;-69
2023/06/18 04:10:39;;;;;;;;;;;20.20;71.90;;;;;;5046274;28;867;-68
2023/06/18 04:13:05;;;;;;;;;;;20.20;71.90;;;;;;5045864;28;1323;-68
2023/06/18 04:15:30;;;;;;;;;;;20.20;71.90;;;;;;5047242;28;2014;-69
2023/06/18 04:17:56;;;;;;;;;;;20.20;71.90;;;;;;5047700;28;773;-69
2023/06/18 04:20:21;;;;;;;;;;;20.20;71.90;;;;;;5047082;28;858;-68
2023/06/18 04:22:47;;;;;;;;;;;20.20;71.90;;;;;;5047207;28;876;-69
2023/06/18 04:25:12;;;;;;;;;;;20.20;72.60;;;;;;5048008;28;1266;-69
2023/06/18 04:27:38;;;;;;;;;;;20.20;71.90;;;;;;5044417;28;1512;-68
2023/06/18 04:30:04;;;;;;;;;;;20.20;71.90;;;;;;5049018;28;961;-68
2023/06/18 04:32:30;;;;;;;;;;;20.20;71.90;;;;;;5049564;28;837;-68
2023/06/18 04:34:55;;;;;;;;;;;20.20;71.90;;;;;;5043793;28;1310;-69
2023/06/18 04:37:21;;;;;;;;;;;20.20;71.90;;;;;;5044781;28;1910;-69
2023/06/18 04:39:46;;;;;;;;;;;20.20;71.90;;;;;;5046273;28;855;-68
2023/06/18 04:42:12;;;;;;;;;;;20.10;71.80;;;;;;5046866;28;1061;-69
2023/06/18 04:44:38;;;;;;;;;;;20.20;71.90;;;;;;5049451;28;1263;-69
2023/06/18 04:47:04;;;;;;;;;;;20.20;71.90;;;;;;5051397;28;911;-69
2023/06/18 04:49:30;;;;;;;;;;;20.10;71.80;;;;;;5052002;28;777;-68
2023/06/18 04:51:55;;;;;;;;;;;20.20;71.90;;;;;;5049206;28;816;-69
2023/06/18 04:54:21;;;;;;;;;;;20.20;71.90;;;;;;5048262;28;1675;-68
2023/06/18 04:56:46;;;;;;;;;;;20.20;71.90;;;;;;5050798;28;1950;-68
2023/06/18 04:59:12;;;;;;;;;;;20.20;71.90;;;;;;5051292;28;855;-69
2023/06/18 05:01:37;;;;;;;;;;;20.20;71.90;;;;;;5051181;28;881;-68
2023/06/18 05:04:03;;;;;;;;;;;20.20;71.90;;;;;;5051946;28;1369;-69
2023/06/18 05:06:28;;;;;;;;;;;20.20;71.90;;;;;;5050871;28;883;-69
2023/06/18 05:08:53;;;;;;;;;;;20.20;71.90;;;;;;5051806;28;1003;-68
2023/06/18 05:11:19;;;;;;;;;;;20.20;71.90;;;;;;5049408;28;847;-69
2023/06/18 05:13:45;;;;;;;;;;;20.20;71.90;;;;;;5049506;28;868;-69
2023/06/18 05:16:10;;;;;;;;;;;20.20;71.90;;;;;;5051527;28;1975;-69
2023/06/18 05:18:37;;;;;;;;;;;20.20;71.90;;;;;;5047722;28;808;-69
2023/06/18 05:21:02;;;;;;;;;;;20.20;71.90;;;;;;5044271;28;894;-68
2023/06/18 05:23:28;;;;;;;;;;;20.20;71.90;;;;;;5049942;28;1002;-69
2023/06/18 05:25:53;;;;;;;;;;;20.20;71.90;;;;;;5052220;28;1356;-69
2023/06/18 05:28:19;;;;;;;;;;;20.20;71.90;;;;;;5049819;28;1368;-69
2023/06/18 05:30:46;;;;;;;;;;;20.20;71.90;;;;;;5050740;28;836;-69
2023/06/18 05:33:12;;;;;;;;;;;20.20;71.90;;;;;;5052349;28;891;-69
2023/06/18 05:35:37;;;;;;;;;;;20.20;71.90;;;;;;5049657;28;1914;-69
2023/06/18 05:38:03;;;;;;;;;;;20.20;71.90;;;;;;5049846;28;820;-68
2023/06/18 05:40:28;;;;;;;;;;;20.20;71.90;;;;;;5050662;28;900;-68
2023/06/18 05:42:54;;;;;;;;;;;20.20;71.90;;;;;;5050728;28;1055;-70
2023/06/18 05:45:19;;;;;;;;;;;20.20;71.80;;;;;;5048727;28;1279;-70
2023/06/18 05:47:45;;;;;;;;;;;20.20;72.00;;;;;;5051264;28;1044;-69
2023/06/18 05:50:10;;;;;;;;;;;20.20;72.00;;;;;;5050140;28;827;-70
2023/06/18 05:52:36;;;;;;;;;;;20.20;72.10;;;;;;5050677;28;1672;-70
2023/06/18 05:55:01;;;;;;;;;;;20.20;72.10;;;;;;5050419;28;1379;-69
2023/06/18 05:57:27;;;;;;;;;;;20.10;72.10;;;;;;5050068;28;1906;-69
2023/06/18 05:59:53;;;;;;;;;;;20.20;72.10;;;;;;5050278;28;824;-67
2023/06/18 06:02:18;;;;;;;;;;;20.10;72.10;;;;;;5050251;28;792;-68
2023/06/18 06:04:43;;;;;;;;;;;20.10;72.60;;;;;;5047379;28;1287;-69
2023/06/18 06:07:09;;;;;;;;;;;20.10;72.10;;;;;;5049618;28;1498;-69
2023/06/18 06:09:35;;;;;;;;;;;20.10;72.10;;;;;;5044836;28;820;-69
2023/06/18 06:12:00;;;;;;;;;;;20.10;72.10;;;;;;5068853;28;1583;-69
2023/06/18 06:14:25;;;;;;;;;;;20.10;72.10;;;;;;5048332;28;1251;-68
2023/06/18 06:16:57;;;;;;;;;;;20.10;72.10;;;;;;5049641;28;1965;-68
2023/06/18 06:19:22;;;;;;;;;;;20.20;72.10;;;;;;5049259;28;911;-67
2023/06/18 06:21:48;;;;;;;;;;;20.10;72.10;;;;;;5049538;28;2290;-67
2023/06/18 06:24:13;;;;;;;;;;;20.10;72.10;;;;;;5049366;28;2003;-69
2023/06/18 06:26:39;;;;;;;;;;;20.10;72.10;;;;;;5049975;28;1412;-71
2023/06/18 06:29:04;;;;;;;;;;;20.10;72.10;;;;;;5048525;28;1368;-68
2023/06/18 06:31:30;;;;;;;;;;;20.10;72.10;;;;;;5049370;28;827;-71
2023/06/18 06:33:55;;;;;;;;;;;20.10;72.10;;;;;;5049299;28;1371;-70
2023/06/18 06:36:21;;;;;;;;;;;20.10;72.10;;;;;;5048452;28;1969;-68
2023/06/18 06:38:46;;;;;;;;;;;20.10;72.00;;;;;;5046933;28;1027;-69
2023/06/18 06:41:12;;;;;;;;;;;20.20;72.20;;;;;;5048980;28;1058;-68
2023/06/18 06:43:37;;;;;;;;;;;20.20;72.20;;;;;;5046856;28;863;-70
2023/06/18 06:46:03;;;;;;;;;;;20.20;72.10;;;;;;5047403;28;1255;-73
2023/06/18 06:48:28;;;;;;;;;;;20.20;72.10;;;;;;5051145;28;860;-71
2023/06/18 06:50:53;;;;;;;;;;;20.20;72.00;;;;;;5048121;28;923;-72
2023/06/18 06:53:19;;;;;;;;;;;20.10;72.00;;;;;;5050668;28;1276;-72
2023/06/18 06:55:44;;;;;;;;;;;20.20;72.00;;;;;;5049247;28;1901;-73
2023/06/18 06:58:10;;;;;;;;;;;20.10;72.00;;;;;;5050529;28;1064;-70
2023/06/18 07:00:35;;;;;;;;;;;20.20;72.00;;;;;;5048411;28;2118;-70
2023/06/18 07:03:01;;;;;;;;;;;20.20;72.00;;;;;;5049591;28;1358;-71
2023/06/18 07:05:27;;;;;;;;;;;20.20;72.00;;;;;;5050266;28;1367;-71
2023/06/18 07:07:52;;;;;;;;;;;20.20;72.00;;;;;;5044885;28;1328;-70
2023/06/18 07:10:18;;;;;;;;;;;20.20;71.80;;;;;;5044863;28;1047;-69
2023/06/18 07:12:43;;;;;;;;;;;20.20;71.90;;;;;;5049417;28;851;-69
2023/06/18 07:15:09;;;;;;;;;;;20.20;71.90;;;;;;5047201;28;1425;-69
2023/06/18 07:17:34;;;;;;;;;;;20.30;71.70;;;;;;5049831;28;1980;-69
2023/06/18 07:20:00;;;;;;;;;;;20.30;71.70;;;;;;5048394;28;1274;-69
2023/06/18 07:22:25;;;;;;;;;;;20.30;71.80;;;;;;5048489;28;1354;-69
2023/06/18 07:24:51;;;;;;;;;;;20.30;72.00;;;;;;5044793;28;1541;-69
2023/06/18 07:27:16;;;;;;;;;;;20.30;72.20;;;;;;5047658;28;1363;-69
2023/06/18 07:29:42;;;;;;;;;;;20.30;72.20;;;;;;5046922;28;1367;-69
2023/06/18 07:32:07;;;;;;;;;;;20.40;72.50;;;;;;5046191;28;1417;-69
2023/06/18 07:34:33;;;;;;;;;;;20.40;72.70;;;;;;5046656;28;2076;-69
2023/06/18 07:36:58;;;;;;;;;;;20.40;72.80;;;;;;5047446;28;1965;-69
2023/06/18 07:39:25;;;;;;;;;;;20.50;72.70;;;;;;5049239;28;1374;-69
2023/06/18 07:41:50;;;;;;;;;;;20.50;72.50;;;;;;5045998;28;1063;-69
2023/06/18 07:44:16;;;;;;;;;;;20.50;72.40;;;;;;5048645;28;1273;-69
2023/06/18 07:46:42;;;;;;;;;;;20.50;72.40;;;;;;5047821;28;2132;-69
2023/06/18 07:49:08;;;;;;;;;;;20.50;72.40;;;;;;5048347;28;1272;-69
2023/06/18 07:51:33;;;;;;;;;;;20.50;72.40;;;;;;5048483;28;1265;-69
2023/06/18 07:53:59;;;;;;;;;;;20.50;72.40;;;;;;5046351;28;1335;-69
2023/06/18 07:56:26;;;;;;;;;;;20.50;72.50;;;;;;5048585;28;1910;-69
2023/06/18 07:58:52;;;;;;;;;;;20.50;72.40;;;;;;5067231;28;1599;-69
2023/06/18 08:01:17;;;;;;;;;;;20.50;72.40;;;;;;5046232;28;1463;-69
2023/06/18 08:03:43;;;;;;;;;;;20.50;72.50;;;;;;5044853;28;851;-69
2023/06/18 08:06:08;;;;;;;;;;;20.50;72.50;;;;;;5047774;28;1285;-69
2023/06/18 08:08:34;;;;;;;;;;;20.60;72.60;;;;;;5047553;28;820;-69
2023/06/18 08:10:59;;;;;;;;;;;20.60;72.70;;;;;;5048957;28;827;-69
2023/06/18 08:13:25;;;;;;;;;;;20.50;72.60;;;;;;5046082;28;847;-69
2023/06/18 08:15:50;;;;;;;;;;;20.50;73.10;;;;;;5048055;28;1898;-69
2023/06/18 08:18:15;;;;;;;;;;;20.50;73.30;;;;;;5046841;28;852;-69
2023/06/18 08:20:41;;;;;;;;;;;20.60;73.40;;;;;;5047859;28;1246;-69
2023/06/18 08:23:06;;;;;;;;;;;20.60;73.50;;;;;;5047614;28;880;-69
2023/06/18 08:25:32;;;;;;;;;;;20.60;73.60;;;;;;5046870;28;1679;-69
2023/06/18 08:27:58;;;;;;;;;;;20.60;73.70;;;;;;5043760;28;1351;-69
2023/06/18 08:30:24;;;;;;;;;;;20.60;74.00;;;;;;5047103;28;848;-69
2023/06/18 08:32:50;;;;;;;;;;;20.60;74.10;;;;;;5044543;28;1258;-69
2023/06/18 08:35:15;;;;;;;;;;;20.60;74.00;;;;;;5046297;28;1316;-69
2023/06/18 08:37:41;;;;;;;;;;;20.60;74.00;;;;;;5047600;28;2029;-69
2023/06/18 08:40:08;;;;;;;;;;;20.60;74.00;;;;;;5047088;28;1376;-69
2023/06/18 08:42:33;;;;;;;;;;;20.60;73.90;;;;;;5043448;28;921;-69
2023/06/18 08:44:59;;;;;;;;;;;20.60;73.90;;;;;;5031553;28;1318;-69
2023/06/18 08:47:25;;;;;;;;;;;20.60;74.60;;;;;;5047325;28;927;-70
2023/06/18 08:49:51;;;;;;;;;;;20.70;74.30;;;;;;5046684;28;896;-68
2023/06/18 08:52:17;;;;;;;;;;;20.70;74.40;;;;;;5044680;28;2423;-69
2023/06/18 08:54:43;;;;;;;;;;;20.70;74.30;;;;;;5047283;28;1357;-69
2023/06/18 08:57:34;;;;;;;;;;;20.70;74.10;;;;;;5045977;28;1953;-68
2023/06/18 09:00:00;;;;;;;;;;;20.70;74.00;;;;;;5022731;28;1602;-68
2023/06/18 09:02:26;;;;;;;;;;;20.70;74.10;;;;;;5047245;28;834;-68
2023/06/18 09:04:51;;;;;;;;;;;20.70;74.10;;;;;;5046197;28;1203;-67
2023/06/18 09:07:17;;;;;;;;;;;20.70;74.20;;;;;;5048781;28;897;-67
2023/06/18 09:09:43;;;;;;;;;;;20.70;74.10;;;;;;5035672;28;872;-68
2023/06/18 09:12:08;;;;;;;;;;;20.70;74.10;;;;;;5046465;28;864;-67
2023/06/18 09:14:34;;;;;;;;;;;20.70;74.10;;;;;;5046789;28;1314;-68
2023/06/18 09:16:59;;;;;;;;;;;20.70;74.10;;;;;;5045558;28;1898;-68
2023/06/18 09:19:24;;;;;;;;;;;20.70;74.20;;;;;;5047820;28;856;-67
2023/06/18 09:21:50;;;;;;;;;;;20.70;74.20;;;;;;5047916;28;832;-68
2023/06/18 09:24:17;;;;;;;;;;;20.70;74.10;;;;;;5046966;28;1311;-67
2023/06/18 09:26:42;;;;;;;;;;;20.70;74.10;;;;;;5046902;28;988;-68
2023/06/18 09:29:08;;;;;;;;;;;20.70;74.20;;;;;;5044982;28;1077;-67
2023/06/18 09:31:34;;;;;;;;;;;20.70;74.10;;;;;;5048935;28;881;-67
2023/06/18 09:34:17;;;;;;;;;;;20.70;74.20;;;;;;5051067;28;1347;-67
2023/06/18 09:36:43;;;;;;;;;;;20.70;74.70;;;;;;5049057;28;1973;-67
2023/06/18 09:39:15;;;;;;;;;;;20.80;74.90;;;;;;5049569;28;1029;-67
2023/06/18 09:41:41;;;;;;;;;;;20.80;74.80;;;;;;5046801;28;895;-67
2023/06/18 09:44:07;;;;;;;;;;;20.80;74.80;;;;;;5049169;28;1671;-67
2023/06/18 09:46:32;;;;;;;;;;;20.80;74.70;;;;;;5047023;28;1862;-67
2023/06/18 09:48:58;;;;;;;;;;;20.80;74.80;;;;;;5039475;28;1452;-67
2023/06/18 09:51:24;;;;;;;;;;;20.80;75.10;;;;;;5049198;28;1438;-67
2023/06/18 09:53:57;;;;;;;;;;;20.80;74.60;;;;;;5044333;28;974;-68
2023/06/18 09:56:22;;;;;;;;;;;20.80;74.50;;;;;;5049358;28;1898;-67
2023/06/18 09:58:48;;;;;;;;;;;20.80;74.50;;;;;;5049853;28;1246;-67
2023/06/18 10:01:14;;;;;;;;;;;20.80;74.40;;;;;;5048493;28;958;-67
2023/06/18 10:03:40;;;;;;;;;;;20.80;74.40;;;;;;5046993;28;883;-67
2023/06/18 10:06:26;;;;;;;;;;;20.80;74.70;;;;;;5049502;28;1268;-68
2023/06/18 10:08:53;;;;;;;;;;;20.80;75.00;;;;;;5047107;28;1918;-67
2023/06/18 10:11:19;;;;;;;;;;;20.80;74.90;;;;;;5049368;28;895;-67
2023/06/18 10:13:45;;;;;;;;;;;20.80;74.80;;;;;;5050502;28;875;-68
2023/06/18 10:16:12;;;;;;;;;;;20.80;74.70;;;;;;5050332;28;1906;-67
2023/06/18 10:18:37;;;;;;;;;;;20.80;74.50;;;;;;5050030;28;895;-67
2023/06/18 10:21:04;;;;;;;;;;;20.90;74.60;;;;;;5050513;28;1015;-68
2023/06/18 10:23:30;;;;;;;;;;;20.90;74.50;;;;;;5043861;28;880;-67
2023/06/18 10:25:55;;;;;;;;;;;20.90;74.60;;;;;;5047441;28;1260;-68
2023/06/18 10:28:21;;;;;;;;;;;20.90;74.70;;;;;;5049480;28;1484;-67
2023/06/18 10:30:46;;;;;;;;;;;20.90;74.80;;;;;;5047691;28;1033;-68
2023/06/18 10:33:12;;;;;;;;;;;20.90;74.80;;;;;;5049058;28;1014;-67
2023/06/18 10:35:38;;;;;;;;;;;20.90;74.60;;;;;;5050456;28;1902;-67
2023/06/18 10:38:04;;;;;;;;;;;20.90;74.50;;;;;;5050487;28;880;-67
2023/06/18 10:40:29;;;;;;;;;;;20.90;74.60;;;;;;5048539;28;889;-67
2023/06/18 10:43:05;;;;;;;;;;;20.90;74.80;;;;;;5047297;28;935;-67
2023/06/18 10:45:30;;;;;;;;;;;20.90;74.80;;;;;;5048445;28;1948;-67
2023/06/18 10:48:12;;;;;;;;;;;20.90;74.80;;;;;;5049546;28;2160;-66
2023/06/18 10:50:37;;;;;;;;;;;20.90;74.70;;;;;;5048997;28;1258;-66
2023/06/18 10:53:20;;;;;;;;;;;20.90;74.80;;;;;;5048217;28;1588;-66
2023/06/18 10:55:46;;;;;;;;;;;20.90;74.90;;;;;;5050233;28;1898;-66
2023/06/18 10:58:11;;;;;;;;;;;20.90;74.90;;;;;;5047799;28;1431;-66
2023/06/18 11:00:40;;;;;;;;;;;20.90;74.90;;;;;;5049083;28;902;-66
2023/06/18 11:03:07;;;;;;;;;;;20.90;74.90;;;;;;5047949;28;895;-66
2023/06/18 11:05:33;;;;;;;;;;;20.90;74.90;;;;;;5042533;28;2150;-66
2023/06/18 11:08:00;;;;;;;;;;;20.90;74.90;;;;;;5049943;28;1205;-66
2023/06/18 11:10:32;;;;;;;;;;;20.90;75.90;;;;;;5049545;28;1838;-66
2023/06/18 11:12:57;;;;;;;;;;;20.90;75.10;;;;;;5048673;28;1388;-66
2023/06/18 11:15:23;;;;;;;;;;;20.90;74.90;;;;;;5046581;28;1336;-66
2023/06/18 11:17:53;;;;;;;;;;;21.00;75.00;;;;;;5047291;28;2015;-67
2023/06/18 11:20:22;;;;;;;;;;;20.90;74.80;;;;;;5047184;28;882;-67
2023/06/18 11:22:48;;;;;;;;;;;20.90;74.70;;;;;;5049008;28;844;-67
2023/06/18 11:25:14;;;;;;;;;;;20.90;74.70;;;;;;5047713;28;1639;-67
2023/06/18 11:27:44;;;;;;;;;;;20.90;74.70;;;;;;5048411;28;1396;-67
2023/06/18 11:30:10;;;;;;;;;;;20.90;74.70;;;;;;5045184;28;837;-67
2023/06/18 11:32:35;;;;;;;;;;;20.90;74.70;;;;;;5039440;28;890;-67
2023/06/18 11:35:01;;;;;;;;;;;20.90;74.70;;;;;;5049858;28;1282;-67
2023/06/18 11:37:27;;;;;;;;;;;20.90;74.80;;;;;;5048483;28;1926;-67
2023/06/18 11:39:53;;;;;;;;;;;20.90;74.90;;;;;;5049322;28;903;-68
2023/06/18 11:42:22;;;;;;;;;;;20.90;75.00;;;;;;5044871;28;959;-68
2023/06/18 11:44:50;;;;;;;;;;;20.90;75.00;;;;;;5047355;28;1307;-67
2023/06/18 11:47:16;;;;;;;;;;;20.90;75.10;;;;;;5049274;28;840;-67
2023/06/18 11:49:45;;;;;;;;;;;20.90;75.00;;;;;;5047917;28;878;-67
2023/06/18 11:52:11;;;;;;;;;;;20.90;75.10;;;;;;5048722;28;864;-67
2023/06/18 11:54:40;;;;;;;;;;;20.90;75.30;;;;;;5048187;28;1268;-67
2023/06/18 11:57:06;;;;;;;;;;;20.90;75.30;;;;;;5038879;28;1941;-67
2023/06/18 11:59:32;;;;;;;;;;;20.90;75.40;;;;;;5046930;28;934;-67
2023/06/18 12:02:08;;;;;;;;;;;20.90;75.60;;;;;;5049028;28;821;-66
2023/06/18 12:04:34;;;;;;;;;;;20.90;76.10;;;;;;5047353;28;1362;-66
2023/06/18 12:06:59;;;;;;;;;;;20.90;75.70;;;;;;5047299;28;828;-67
2023/06/18 12:09:25;;;;;;;;;;;20.90;74.40;;;;;;5044892;28;891;-67
2023/06/18 12:11:54;;;;;;;;;;;20.90;73.70;;;;;;5046543;28;1428;-66
2023/06/18 12:14:27;;;;;;;;;;;20.80;72.40;;;;;;5046204;28;1573;-66
2023/06/18 12:16:54;;;;;;;;;;;20.80;72.20;;;;;;5047489;28;1910;-66
2023/06/18 12:19:19;;;;;;;;;;;20.80;72.10;;;;;;5045507;28;1369;-67
2023/06/18 12:21:45;;;;;;;;;;;20.80;71.50;;;;;;5043254;28;2152;-67
2023/06/18 12:24:11;;;;;;;;;;;20.70;71.30;;;;;;5046888;28;1228;-67
2023/06/18 12:26:36;;;;;;;;;;;20.70;71.30;;;;;;5044045;28;919;-67
2023/06/18 12:29:02;;;;;;;;;;;20.80;72.10;;;;;;5048260;28;1301;-66
2023/06/18 12:31:27;;;;;;;;;;;20.80;72.10;;;;;;5039972;28;1448;-66
2023/06/18 12:33:53;;;;;;;;;;;20.80;71.50;;;;;;5045884;28;1836;-67
2023/06/18 12:36:25;;;;;;;;;;;20.80;70.90;;;;;;5046006;28;1981;-67
2023/06/18 12:38:51;;;;;;;;;;;20.70;70.40;;;;;;5045454;28;1061;-67
2023/06/18 12:41:23;;;;;;;;;;;20.70;69.90;;;;;;5047286;28;832;-67
2023/06/18 12:43:48;;;;;;;;;;;20.70;69.50;;;;;;5048107;28;985;-67
2023/06/18 12:46:26;;;;;;;;;;;20.60;69.00;;;;;;5048233;28;1267;-67
2023/06/18 12:48:52;;;;;;;;;;;20.70;68.70;;;;;;5042813;28;923;-67
2023/06/18 12:51:17;;;;;;;;;;;20.70;69.40;;;;;;5041882;28;884;-67
2023/06/18 12:53:43;;;;;;;;;;;20.70;69.70;;;;;;5047491;28;920;-67
2023/06/18 12:56:17;;;;;;;;;;;20.70;69.90;;;;;;5047277;28;1902;-67
2023/06/18 12:58:43;;;;;;;;;;;20.70;69.80;;;;;;5042760;28;859;-67
2023/06/18 13:01:09;;;;;;;;;;;20.70;69.10;;;;;;5044594;28;868;-67
2023/06/18 13:03:34;;;;;;;;;;;20.70;68.80;;;;;;5047859;28;859;-67
2023/06/18 13:06:00;;;;;;;;;;;20.60;68.00;;;;;;5048542;28;1405;-67
2023/06/18 13:08:25;;;;;;;;;;;20.70;68.30;;;;;;5051084;28;835;-67
2023/06/18 13:10:51;;;;;;;;;;;20.60;68.00;;;;;;5048622;28;851;-66
2023/06/18 13:13:17;;;;;;;;;;;20.60;68.20;;;;;;5052040;28;903;-66
2023/06/18 13:15:42;;;;;;;;;;;20.60;68.30;;;;;;5049916;28;1957;-67
2023/06/18 13:18:08;;;;;;;;;;;20.60;68.20;;;;;;5049924;28;990;-67
2023/06/18 13:20:34;;;;;;;;;;;20.60;67.80;;;;;;5046752;28;855;-66
2023/06/18 13:22:59;;;;;;;;;;;20.60;68.10;;;;;;5048240;28;808;-66
2023/06/18 13:25:25;;;;;;;;;;;20.60;67.90;;;;;;5047738;28;1303;-67
2023/06/18 13:27:51;;;;;;;;;;;20.60;68.30;;;;;;5050278;28;1472;-67
2023/06/18 13:30:16;;;;;;;;;;;20.60;68.70;;;;;;5051305;28;863;-67
2023/06/18 13:32:42;;;;;;;;;;;20.50;68.80;;;;;;5051223;28;796;-66
2023/06/18 13:35:07;;;;;;;;;;;20.50;68.90;;;;;;5048968;28;1410;-67
2023/06/18 13:37:33;;;;;;;;;;;20.50;67.30;;;;;;5049961;28;1964;-66
2023/06/18 13:39:58;;;;;;;;;;;20.50;67.40;;;;;;5050615;28;839;-67
2023/06/18 13:42:24;;;;;;;;;;;20.50;67.90;;;;;;5051552;28;819;-66
2023/06/18 13:44:49;;;;;;;;;;;20.50;68.00;;;;;;5051330;28;1272;-67
2023/06/18 13:47:15;;;;;;;;;;;20.50;68.10;;;;;;5050001;28;855;-67
2023/06/18 13:49:40;;;;;;;;;;;20.50;68.10;;;;;;5050404;28;912;-66
2023/06/18 13:52:07;;;;;;;;;;;20.50;68.30;;;;;;5045975;28;851;-67
2023/06/18 13:54:32;;;;;;;;;;;20.50;67.40;;;;;;5051905;28;1368;-67
2023/06/18 13:56:58;;;;;;;;;;;20.50;67.40;;;;;;5044821;28;1973;-67
2023/06/18 13:59:23;;;;;;;;;;;20.50;67.90;;;;;;5046087;28;1034;-67
2023/06/18 14:01:50;;;;;;;;;;;20.50;68.30;;;;;;5049325;28;1096;-67
2023/06/18 14:04:15;;;;;;;;;;;20.50;68.00;;;;;;5050354;28;1317;-67
2023/06/18 14:06:41;;;;;;;;;;;20.50;67.40;;;;;;5047792;28;1849;-66
2023/06/18 14:09:08;;;;;;;;;;;20.50;67.70;;;;;;5051367;28;2030;-66
2023/06/18 14:11:33;;;;;;;;;;;20.50;68.00;;;;;;5048500;28;904;-66
2023/06/18 14:13:59;;;;;;;;;;;20.50;68.10;;;;;;5050523;28;2257;-66
2023/06/18 14:16:24;;;;;;;;;;;20.50;68.50;;;;;;5049155;28;1969;-67
2023/06/18 14:18:50;;;;;;;;;;;20.50;68.00;;;;;;5050172;28;979;-65
2023/06/18 14:21:15;;;;;;;;;;;20.50;67.40;;;;;;5050641;28;1066;-66
2023/06/18 14:23:41;;;;;;;;;;;20.60;67.80;;;;;;5050886;28;958;-66
2023/06/18 14:26:06;;;;;;;;;;;20.60;68.10;;;;;;5050962;28;1458;-66
2023/06/18 14:28:32;;;;;;;;;;;20.60;67.60;;;;;;5051316;28;1006;-66
2023/06/18 14:30:57;;;;;;;;;;;20.60;67.70;;;;;;5047711;28;1604;-66